sensor_id;sensor_type;location;lat;lon;timestamp;temperature;humidity
55648;DHT22;45266;48.756;9.246;2023-05-16T00:01:01;10.60;99.90
55648;DHT22;45266;48.756;9.246;2023-05-16T00:02:03;10.60;99.90
55648;DHT22;45266;48.756;9.246;2023-05-16T00:03:06;10.60;99.90
55648;DHT22;45266;48.756;9.246;2023-05-16T00:04:09;10.60;99.90
55648;DHT22;45266;48.756;9.246;2023-05-16T00:05:11;10.50;99.90
55648;DHT22;45266;48.756;9.246;2023-05-16T00:06:15;10.50;99.90
55648;DHT22;45266;48.756;9.246;2023-05-16T00:07:17;10.50;99.90
55648;DHT22;45266;48.756;9.246;2023-05-16T00:08:19;10.50;99.90
55648;DHT22;45266;48.756;9.246;2023-05-16T00:09:21;10.50;99.90
55648;DHT22;45266;48.756;9.246;2023-05-16T00:10:23;10.40;99.90
55648;DHT22;45266;48.756;9.246;2023-05-16T00:11:25;10.40;99.90
55648;DHT22;45266;48.756;9.246;2023-05-16T00:12:27;10.40;99.90
55648;DHT22;45266;48.756;9.246;2023-05-16T00:13:29;10.50;99.90
55648;DHT22;45266;48.756;9.246;2023-05-16T00:14:32;10.40;99.90
55648;DHT22;45266;48.756;9.246;2023-05-16T00:15:34;10.40;99.90
55648;DHT22;45266;48.756;9.246;2023-05-16T00:16:36;10.40;99.90
55648;DHT22;45266;48.756;9.246;2023-05-16T00:17:38;10.30;99.90
55648;DHT22;45266;48.756;9.246;2023-05-16T00:18:41;10.40;99.90
55648;DHT22;45266;48.756;9.246;2023-05-16T00:19:46;10.30;99.90
55648;DHT22;45266;48.756;9.246;2023-05-16T00:20:49;10.40;99.90
55648;DHT22;45266;48.756;9.246;2023-05-16T00:21:53;10.30;99.90
55648;DHT22;45266;48.756;9.246;2023-05-16T00:22:55;10.40;99.90
55648;DHT22;45266;48.756;9.246;2023-05-16T00:23:58;10.30;99.90
55648;DHT22;45266;48.756;9.246;2023-05-16T00:25:00;10.40;99.90
55648;DHT22;45266;48.756;9.246;2023-05-16T00:26:02;10.40;99.90
55648;DHT22;45266;48.756;9.246;2023-05-16T00:27:04;10.40;99.90
55648;DHT22;45266;48.756;9.246;2023-05-16T00:28:06;10.40;99.90
55648;DHT22;45266;48.756;9.246;2023-05-16T00:29:09;10.30;99.90
55648;DHT22;45266;48.756;9.246;2023-05-16T00:30:11;10.30;99.90
55648;DHT22;45266;48.756;9.246;2023-05-16T00:31:13;10.30;99.90
55648;DHT22;45266;48.756;9.246;2023-05-16T00:32:15;10.30;99.90
55648;DHT22;45266;48.756;9.246;2023-05-16T00:33:17;10.30;99.90
55648;DHT22;45266;48.756;9.246;2023-05-16T00:34:19;10.30;99.90
55648;DHT22;45266;48.756;9.246;2023-05-16T00:35:23;10.30;99.90
55648;DHT22;45266;48.756;9.246;2023-05-16T00:36:25;10.20;99.90
55648;DHT22;45266;48.756;9.246;2023-05-16T00:37:27;10.30;99.90
55648;DHT22;45266;48.756;9.246;2023-05-16T00:38:28;10.30;99.90
55648;DHT22;45266;48.756;9.246;2023-05-16T00:39:30;10.30;99.90
55648;DHT22;45266;48.756;9.246;2023-05-16T00:40:32;10.30;99.90
55648;DHT22;45266;48.756;9.246;2023-05-16T00:41:34;10.30;99.90
55648;DHT22;45266;48.756;9.246;2023-05-16T00:42:36;10.20;99.90
55648;DHT22;45266;48.756;9.246;2023-05-16T00:43:38;10.30;99.90
55648;DHT22;45266;48.756;9.246;2023-05-16T00:44:40;10.30;99.90
55648;DHT22;45266;48.756;9.246;2023-05-16T00:45:42;10.30;99.90
55648;DHT22;45266;48.756;9.246;2023-05-16T00:46:44;10.30;99.90
55648;DHT22;45266;48.756;9.246;2023-05-16T00:47:47;10.30;99.90
55648;DHT22;45266;48.756;9.246;2023-05-16T00:48:49;10.30;99.90
55648;DHT22;45266;48.756;9.246;2023-05-16T00:49:50;10.30;99.90
55648;DHT22;45266;48.756;9.246;2023-05-16T00:50:52;10.20;99.90
55648;DHT22;45266;48.756;9.246;2023-05-16T00:51:56;10.30;99.90
55648;DHT22;45266;48.756;9.246;2023-05-16T00:52:58;10.30;99.90
55648;DHT22;45266;48.756;9.246;2023-05-16T00:54:00;10.30;99.90
55648;DHT22;45266;48.756;9.246;2023-05-16T00:55:02;10.30;99.90
55648;DHT22;45266;48.756;9.246;2023-05-16T00:56:05;10.30;99.90
55648;DHT22;45266;48.756;9.246;2023-05-16T00:57:07;10.30;99.90
55648;DHT22;45266;48.756;9.246;2023-05-16T00:58:10;10.40;99.90
55648;DHT22;45266;48.756;9.246;2023-05-16T00:59:12;10.30;99.90
55648;DHT22;45266;48.756;9.246;2023-05-16T01:00:14;10.30;99.90
55648;DHT22;45266;48.756;9.246;2023-05-16T01:01:16;10.30;99.90
55648;DHT22;45266;48.756;9.246;2023-05-16T01:02:19;10.40;99.90
55648;DHT22;45266;48.756;9.246;2023-05-16T01:03:21;10.30;99.90
55648;DHT22;45266;48.756;9.246;2023-05-16T01:04:23;10.40;99.90
55648;DHT22;45266;48.756;9.246;2023-05-16T01:05:27;10.40;99.90
55648;DHT22;45266;48.756;9.246;2023-05-16T01:06:29;10.40;99.90
55648;DHT22;45266;48.756;9.246;2023-05-16T01:07:31;10.30;99.90
55648;DHT22;45266;48.756;9.246;2023-05-16T01:08:33;10.40;99.90
55648;DHT22;45266;48.756;9.246;2023-05-16T01:09:35;10.40;99.90
55648;DHT22;45266;48.756;9.246;2023-05-16T01:11:35;10.30;99.90
55648;DHT22;45266;48.756;9.246;2023-05-16T01:12:26;10.40;99.90
55648;DHT22;45266;48.756;9.246;2023-05-16T01:13:45;10.40;99.90
55648;DHT22;45266;48.756;9.246;2023-05-16T01:15:07;10.40;99.90
55648;DHT22;45266;48.756;9.246;2023-05-16T01:16:19;10.40;99.90
55648;DHT22;45266;48.756;9.246;2023-05-16T01:17:58;10.40;99.90
55648;DHT22;45266;48.756;9.246;2023-05-16T01:22:10;10.40;99.90
55648;DHT22;45266;48.756;9.246;2023-05-16T01:27:06;10.30;99.90
55648;DHT22;45266;48.756;9.246;2023-05-16T01:28:09;10.30;99.90
55648;DHT22;45266;48.756;9.246;2023-05-16T01:29:11;10.30;99.90
55648;DHT22;45266;48.756;9.246;2023-05-16T01:30:15;10.30;99.90
55648;DHT22;45266;48.756;9.246;2023-05-16T01:31:18;10.30;99.90
55648;DHT22;45266;48.756;9.246;2023-05-16T01:32:20;10.30;99.90
55648;DHT22;45266;48.756;9.246;2023-05-16T01:33:23;10.20;99.90
55648;DHT22;45266;48.756;9.246;2023-05-16T01:34:25;10.30;99.90
55648;DHT22;45266;48.756;9.246;2023-05-16T01:35:27;10.30;99.90
55648;DHT22;45266;48.756;9.246;2023-05-16T01:38:09;10.20;99.90
55648;DHT22;45266;48.756;9.246;2023-05-16T01:39:23;10.30;99.90
55648;DHT22;45266;48.756;9.246;2023-05-16T01:42:12;10.20;99.90
55648;DHT22;45266;48.756;9.246;2023-05-16T01:43:20;10.20;99.90
55648;DHT22;45266;48.756;9.246;2023-05-16T01:45:19;10.20;99.90
55648;DHT22;45266;48.756;9.246;2023-05-16T01:46:13;10.20;99.90
55648;DHT22;45266;48.756;9.246;2023-05-16T01:47:18;10.20;99.90
55648;DHT22;45266;48.756;9.246;2023-05-16T01:48:29;10.30;99.90
55648;DHT22;45266;48.756;9.246;2023-05-16T01:49:38;10.20;99.90
55648;DHT22;45266;48.756;9.246;2023-05-16T01:50:46;10.20;99.90
55648;DHT22;45266;48.756;9.246;2023-05-16T01:51:59;10.30;99.90
55648;DHT22;45266;48.756;9.246;2023-05-16T01:53:26;10.30;99.90
55648;DHT22;45266;48.756;9.246;2023-05-16T01:54:31;10.30;99.90
55648;DHT22;45266;48.756;9.246;2023-05-16T01:55:47;10.20;99.90
55648;DHT22;45266;48.756;9.246;2023-05-16T01:56:51;10.30;99.90
55648;DHT22;45266;48.756;9.246;2023-05-16T01:57:54;10.30;99.90
55648;DHT22;45266;48.756;9.246;2023-05-16T01:58:57;10.30;99.90
55648;DHT22;45266;48.756;9.246;2023-05-16T02:00:00;10.30;99.90
55648;DHT22;45266;48.756;9.246;2023-05-16T02:01:03;10.30;99.90
55648;DHT22;45266;48.756;9.246;2023-05-16T02:02:06;10.30;99.90
55648;DHT22;45266;48.756;9.246;2023-05-16T02:03:08;10.30;99.90
55648;DHT22;45266;48.756;9.246;2023-05-16T02:04:10;10.30;99.90
55648;DHT22;45266;48.756;9.246;2023-05-16T02:05:12;10.30;99.90
55648;DHT22;45266;48.756;9.246;2023-05-16T02:06:14;10.20;99.90
55648;DHT22;45266;48.756;9.246;2023-05-16T02:07:16;10.20;99.90
55648;DHT22;45266;48.756;9.246;2023-05-16T02:08:18;10.20;99.90
55648;DHT22;45266;48.756;9.246;2023-05-16T02:09:20;10.20;99.90
55648;DHT22;45266;48.756;9.246;2023-05-16T02:10:23;10.20;99.90
55648;DHT22;45266;48.756;9.246;2023-05-16T02:11:24;10.20;99.90
55648;DHT22;45266;48.756;9.246;2023-05-16T02:12:27;10.20;99.90
55648;DHT22;45266;48.756;9.246;2023-05-16T02:13:29;10.20;99.90
55648;DHT22;45266;48.756;9.246;2023-05-16T02:14:31;10.20;99.90
55648;DHT22;45266;48.756;9.246;2023-05-16T02:15:33;10.20;99.90
55648;DHT22;45266;48.756;9.246;2023-05-16T02:16:35;10.20;99.90
55648;DHT22;45266;48.756;9.246;2023-05-16T02:17:37;10.30;99.90
55648;DHT22;45266;48.756;9.246;2023-05-16T02:18:39;10.30;99.90
55648;DHT22;45266;48.756;9.246;2023-05-16T02:19:41;10.20;99.90
55648;DHT22;45266;48.756;9.246;2023-05-16T02:20:43;10.20;99.90
55648;DHT22;45266;48.756;9.246;2023-05-16T02:21:45;10.20;99.90
55648;DHT22;45266;48.756;9.246;2023-05-16T02:22:47;10.20;99.90
55648;DHT22;45266;48.756;9.246;2023-05-16T02:23:50;10.20;99.90
55648;DHT22;45266;48.756;9.246;2023-05-16T02:24:52;10.30;99.90
55648;DHT22;45266;48.756;9.246;2023-05-16T02:25:54;10.30;99.90
55648;DHT22;45266;48.756;9.246;2023-05-16T02:26:56;10.30;99.90
55648;DHT22;45266;48.756;9.246;2023-05-16T02:27:58;10.20;99.90
55648;DHT22;45266;48.756;9.246;2023-05-16T02:29:00;10.20;99.90
55648;DHT22;45266;48.756;9.246;2023-05-16T02:30:02;10.40;99.90
55648;DHT22;45266;48.756;9.246;2023-05-16T02:31:05;10.20;99.90
55648;DHT22;45266;48.756;9.246;2023-05-16T02:32:07;10.30;99.90
55648;DHT22;45266;48.756;9.246;2023-05-16T02:33:10;10.30;99.90
55648;DHT22;45266;48.756;9.246;2023-05-16T02:34:12;10.30;99.90
55648;DHT22;45266;48.756;9.246;2023-05-16T02:35:14;10.30;99.90
55648;DHT22;45266;48.756;9.246;2023-05-16T02:36:16;10.30;99.90
55648;DHT22;45266;48.756;9.246;2023-05-16T02:37:18;10.30;99.90
55648;DHT22;45266;48.756;9.246;2023-05-16T02:38:20;10.30;99.90
55648;DHT22;45266;48.756;9.246;2023-05-16T02:39:22;10.30;99.90
55648;DHT22;45266;48.756;9.246;2023-05-16T02:40:24;10.30;99.90
55648;DHT22;45266;48.756;9.246;2023-05-16T02:41:26;10.30;99.90
55648;DHT22;45266;48.756;9.246;2023-05-16T02:42:28;10.30;99.90
55648;DHT22;45266;48.756;9.246;2023-05-16T02:43:31;10.30;99.90
55648;DHT22;45266;48.756;9.246;2023-05-16T02:44:33;10.30;99.90
55648;DHT22;45266;48.756;9.246;2023-05-16T02:45:35;10.40;99.90
55648;DHT22;45266;48.756;9.246;2023-05-16T02:46:37;10.30;99.90
55648;DHT22;45266;48.756;9.246;2023-05-16T02:47:39;10.30;99.90
55648;DHT22;45266;48.756;9.246;2023-05-16T02:48:41;10.40;99.90
55648;DHT22;45266;48.756;9.246;2023-05-16T02:49:43;10.30;99.90
55648;DHT22;45266;48.756;9.246;2023-05-16T02:50:44;10.40;99.90
55648;DHT22;45266;48.756;9.246;2023-05-16T02:51:46;10.40;99.90
55648;DHT22;45266;48.756;9.246;2023-05-16T02:52:48;10.40;99.90
55648;DHT22;45266;48.756;9.246;2023-05-16T02:53:50;10.40;99.90
55648;DHT22;45266;48.756;9.246;2023-05-16T02:54:52;10.40;99.90
55648;DHT22;45266;48.756;9.246;2023-05-16T02:55:57;10.40;99.90
55648;DHT22;45266;48.756;9.246;2023-05-16T02:56:59;10.40;99.90
55648;DHT22;45266;48.756;9.246;2023-05-16T02:58:00;10.50;99.90
55648;DHT22;45266;48.756;9.246;2023-05-16T02:59:02;10.50;99.90
55648;DHT22;45266;48.756;9.246;2023-05-16T03:00:05;10.50;99.90
55648;DHT22;45266;48.756;9.246;2023-05-16T03:01:08;10.50;99.90
55648;DHT22;45266;48.756;9.246;2023-05-16T03:02:10;10.40;99.90
55648;DHT22;45266;48.756;9.246;2023-05-16T03:03:12;10.50;99.90
55648;DHT22;45266;48.756;9.246;2023-05-16T03:04:14;10.50;99.90
55648;DHT22;45266;48.756;9.246;2023-05-16T03:05:16;10.50;99.90
55648;DHT22;45266;48.756;9.246;2023-05-16T03:06:18;10.50;99.90
55648;DHT22;45266;48.756;9.246;2023-05-16T03:07:20;10.50;99.90
55648;DHT22;45266;48.756;9.246;2023-05-16T03:08:22;10.50;99.90
55648;DHT22;45266;48.756;9.246;2023-05-16T03:09:23;10.50;99.90
55648;DHT22;45266;48.756;9.246;2023-05-16T03:10:25;10.50;99.90
55648;DHT22;45266;48.756;9.246;2023-05-16T03:11:27;10.50;99.90
55648;DHT22;45266;48.756;9.246;2023-05-16T03:12:29;10.50;99.90
55648;DHT22;45266;48.756;9.246;2023-05-16T03:13:31;10.40;99.90
55648;DHT22;45266;48.756;9.246;2023-05-16T03:14:33;10.40;99.90
55648;DHT22;45266;48.756;9.246;2023-05-16T03:15:35;10.50;99.90
55648;DHT22;45266;48.756;9.246;2023-05-16T03:16:37;10.50;99.90
55648;DHT22;45266;48.756;9.246;2023-05-16T03:17:40;10.50;99.90
55648;DHT22;45266;48.756;9.246;2023-05-16T03:18:42;10.50;99.90
55648;DHT22;45266;48.756;9.246;2023-05-16T03:19:44;10.50;99.90
55648;DHT22;45266;48.756;9.246;2023-05-16T03:20:46;10.50;99.90
55648;DHT22;45266;48.756;9.246;2023-05-16T03:21:48;10.50;99.90
55648;DHT22;45266;48.756;9.246;2023-05-16T03:22:50;10.50;99.90
55648;DHT22;45266;48.756;9.246;2023-05-16T03:23:51;10.50;99.90
55648;DHT22;45266;48.756;9.246;2023-05-16T03:24:55;10.50;99.90
55648;DHT22;45266;48.756;9.246;2023-05-16T03:25:58;10.40;99.90
55648;DHT22;45266;48.756;9.246;2023-05-16T03:26:59;10.40;99.90
55648;DHT22;45266;48.756;9.246;2023-05-16T03:28:02;10.40;99.90
55648;DHT22;45266;48.756;9.246;2023-05-16T03:29:04;10.40;99.90
55648;DHT22;45266;48.756;9.246;2023-05-16T03:30:06;10.40;99.90
55648;DHT22;45266;48.756;9.246;2023-05-16T03:31:09;10.40;99.90
55648;DHT22;45266;48.756;9.246;2023-05-16T03:32:11;10.30;99.90
55648;DHT22;45266;48.756;9.246;2023-05-16T03:33:13;10.30;99.90
55648;DHT22;45266;48.756;9.246;2023-05-16T03:34:15;10.30;99.90
55648;DHT22;45266;48.756;9.246;2023-05-16T03:35:16;10.30;99.90
55648;DHT22;45266;48.756;9.246;2023-05-16T03:36:20;10.40;99.90
55648;DHT22;45266;48.756;9.246;2023-05-16T03:37:22;10.30;99.90
55648;DHT22;45266;48.756;9.246;2023-05-16T03:38:24;10.30;99.90
55648;DHT22;45266;48.756;9.246;2023-05-16T03:39:26;10.30;99.90
55648;DHT22;45266;48.756;9.246;2023-05-16T03:40:28;10.30;99.90
55648;DHT22;45266;48.756;9.246;2023-05-16T03:41:30;10.30;99.90
55648;DHT22;45266;48.756;9.246;2023-05-16T03:42:31;10.20;99.90
55648;DHT22;45266;48.756;9.246;2023-05-16T03:43:33;10.30;99.90
55648;DHT22;45266;48.756;9.246;2023-05-16T03:44:35;10.20;99.90
55648;DHT22;45266;48.756;9.246;2023-05-16T03:45:37;10.20;99.90
55648;DHT22;45266;48.756;9.246;2023-05-16T03:46:39;10.20;99.90
55648;DHT22;45266;48.756;9.246;2023-05-16T03:47:41;10.20;99.90
55648;DHT22;45266;48.756;9.246;2023-05-16T03:48:43;10.20;99.90
55648;DHT22;45266;48.756;9.246;2023-05-16T03:49:45;10.10;99.90
55648;DHT22;45266;48.756;9.246;2023-05-16T03:50:46;10.10;99.90
55648;DHT22;45266;48.756;9.246;2023-05-16T03:51:48;10.20;99.90
55648;DHT22;45266;48.756;9.246;2023-05-16T03:52:50;10.20;99.90
55648;DHT22;45266;48.756;9.246;2023-05-16T03:53:53;10.20;99.90
55648;DHT22;45266;48.756;9.246;2023-05-16T03:54:55;10.20;99.90
55648;DHT22;45266;48.756;9.246;2023-05-16T03:55:57;10.20;99.90
55648;DHT22;45266;48.756;9.246;2023-05-16T03:57:00;10.20;99.90
55648;DHT22;45266;48.756;9.246;2023-05-16T03:58:02;10.10;99.90
55648;DHT22;45266;48.756;9.246;2023-05-16T03:59:04;10.10;99.90
55648;DHT22;45266;48.756;9.246;2023-05-16T04:00:06;10.10;99.90
55648;DHT22;45266;48.756;9.246;2023-05-16T04:01:09;10.10;99.90
55648;DHT22;45266;48.756;9.246;2023-05-16T04:02:11;10.10;99.90
55648;DHT22;45266;48.756;9.246;2023-05-16T04:03:12;10.20;99.90
55648;DHT22;45266;48.756;9.246;2023-05-16T04:04:14;10.10;99.90
55648;DHT22;45266;48.756;9.246;2023-05-16T04:05:16;10.20;99.90
55648;DHT22;45266;48.756;9.246;2023-05-16T04:06:18;10.10;99.90
55648;DHT22;45266;48.756;9.246;2023-05-16T04:07:20;10.10;99.90
55648;DHT22;45266;48.756;9.246;2023-05-16T04:08:24;10.10;99.90
55648;DHT22;45266;48.756;9.246;2023-05-16T04:09:26;10.10;99.90
55648;DHT22;45266;48.756;9.246;2023-05-16T04:10:28;10.20;99.90
55648;DHT22;45266;48.756;9.246;2023-05-16T04:11:30;10.20;99.90
55648;DHT22;45266;48.756;9.246;2023-05-16T04:12:32;10.20;99.90
55648;DHT22;45266;48.756;9.246;2023-05-16T04:13:33;10.20;99.90
55648;DHT22;45266;48.756;9.246;2023-05-16T04:14:36;10.10;99.90
55648;DHT22;45266;48.756;9.246;2023-05-16T04:15:38;10.20;99.90
55648;DHT22;45266;48.756;9.246;2023-05-16T04:16:40;10.10;99.90
55648;DHT22;45266;48.756;9.246;2023-05-16T04:17:42;10.20;99.90
55648;DHT22;45266;48.756;9.246;2023-05-16T04:18:45;10.20;99.90
55648;DHT22;45266;48.756;9.246;2023-05-16T04:19:47;10.20;99.90
55648;DHT22;45266;48.756;9.246;2023-05-16T04:20:49;10.20;99.90
55648;DHT22;45266;48.756;9.246;2023-05-16T04:21:50;10.20;99.90
55648;DHT22;45266;48.756;9.246;2023-05-16T04:22:52;10.30;99.90
55648;DHT22;45266;48.756;9.246;2023-05-16T04:23:54;10.30;99.90
55648;DHT22;45266;48.756;9.246;2023-05-16T04:24:58;10.30;99.90
55648;DHT22;45266;48.756;9.246;2023-05-16T04:26:00;10.30;99.90
55648;DHT22;45266;48.756;9.246;2023-05-16T04:27:03;10.30;99.90
55648;DHT22;45266;48.756;9.246;2023-05-16T04:28:05;10.30;99.90
55648;DHT22;45266;48.756;9.246;2023-05-16T04:29:07;10.40;99.90
55648;DHT22;45266;48.756;9.246;2023-05-16T04:30:10;10.40;99.90
55648;DHT22;45266;48.756;9.246;2023-05-16T04:31:12;10.40;99.90
55648;DHT22;45266;48.756;9.246;2023-05-16T04:32:14;10.40;99.90
55648;DHT22;45266;48.756;9.246;2023-05-16T04:33:17;10.40;99.90
55648;DHT22;45266;48.756;9.246;2023-05-16T04:34:19;10.40;99.90
55648;DHT22;45266;48.756;9.246;2023-05-16T04:35:21;10.50;99.90
55648;DHT22;45266;48.756;9.246;2023-05-16T04:36:23;10.50;99.90
55648;DHT22;45266;48.756;9.246;2023-05-16T04:37:24;10.50;99.90
55648;DHT22;45266;48.756;9.246;2023-05-16T04:38:27;10.50;99.90
55648;DHT22;45266;48.756;9.246;2023-05-16T04:39:28;10.50;99.90
55648;DHT22;45266;48.756;9.246;2023-05-16T04:40:30;10.60;99.90
55648;DHT22;45266;48.756;9.246;2023-05-16T04:41:32;10.60;99.90
55648;DHT22;45266;48.756;9.246;2023-05-16T04:42:35;10.70;99.90
55648;DHT22;45266;48.756;9.246;2023-05-16T04:43:37;10.70;99.90
55648;DHT22;45266;48.756;9.246;2023-05-16T04:44:38;10.80;99.90
55648;DHT22;45266;48.756;9.246;2023-05-16T04:45:41;10.70;99.90
55648;DHT22;45266;48.756;9.246;2023-05-16T04:46:43;10.80;99.90
55648;DHT22;45266;48.756;9.246;2023-05-16T04:47:45;10.80;99.90
55648;DHT22;45266;48.756;9.246;2023-05-16T04:48:47;10.80;99.90
55648;DHT22;45266;48.756;9.246;2023-05-16T04:49:49;10.90;99.90
55648;DHT22;45266;48.756;9.246;2023-05-16T04:50:51;11.00;99.90
55648;DHT22;45266;48.756;9.246;2023-05-16T04:51:53;10.90;99.90
55648;DHT22;45266;48.756;9.246;2023-05-16T04:52:55;10.80;99.90
55648;DHT22;45266;48.756;9.246;2023-05-16T04:53:57;10.90;99.90
55648;DHT22;45266;48.756;9.246;2023-05-16T04:54:59;11.00;99.90
55648;DHT22;45266;48.756;9.246;2023-05-16T04:56:01;11.00;99.90
55648;DHT22;45266;48.756;9.246;2023-05-16T04:57:03;11.00;99.90
55648;DHT22;45266;48.756;9.246;2023-05-16T04:58:05;11.10;99.90
55648;DHT22;45266;48.756;9.246;2023-05-16T04:59:07;11.10;99.90
55648;DHT22;45266;48.756;9.246;2023-05-16T05:00:09;11.10;99.90
55648;DHT22;45266;48.756;9.246;2023-05-16T05:01:12;11.10;99.90
55648;DHT22;45266;48.756;9.246;2023-05-16T05:02:14;11.20;99.90
55648;DHT22;45266;48.756;9.246;2023-05-16T05:03:16;11.20;99.90
55648;DHT22;45266;48.756;9.246;2023-05-16T05:04:18;11.30;99.90
55648;DHT22;45266;48.756;9.246;2023-05-16T05:05:20;11.30;99.90
55648;DHT22;45266;48.756;9.246;2023-05-16T05:06:22;11.30;99.90
55648;DHT22;45266;48.756;9.246;2023-05-16T05:07:24;11.30;99.90
55648;DHT22;45266;48.756;9.246;2023-05-16T05:08:29;11.30;99.90
55648;DHT22;45266;48.756;9.246;2023-05-16T05:09:31;11.40;99.90
55648;DHT22;45266;48.756;9.246;2023-05-16T05:10:32;11.30;99.90
55648;DHT22;45266;48.756;9.246;2023-05-16T05:11:34;11.40;99.90
55648;DHT22;45266;48.756;9.246;2023-05-16T05:12:36;11.50;99.90
55648;DHT22;45266;48.756;9.246;2023-05-16T05:13:38;11.50;99.90
55648;DHT22;45266;48.756;9.246;2023-05-16T05:14:40;11.50;99.90
55648;DHT22;45266;48.756;9.246;2023-05-16T05:15:41;11.50;99.90
55648;DHT22;45266;48.756;9.246;2023-05-16T05:16:43;11.50;99.90
55648;DHT22;45266;48.756;9.246;2023-05-16T05:17:45;11.60;99.90
55648;DHT22;45266;48.756;9.246;2023-05-16T05:18:47;11.60;99.90
55648;DHT22;45266;48.756;9.246;2023-05-16T05:19:49;11.60;99.90
55648;DHT22;45266;48.756;9.246;2023-05-16T05:20:51;11.70;99.90
55648;DHT22;45266;48.756;9.246;2023-05-16T05:21:53;11.70;99.90
55648;DHT22;45266;48.756;9.246;2023-05-16T05:22:55;11.70;99.90
55648;DHT22;45266;48.756;9.246;2023-05-16T05:23:56;11.80;99.90
55648;DHT22;45266;48.756;9.246;2023-05-16T05:24:58;11.80;99.90
55648;DHT22;45266;48.756;9.246;2023-05-16T05:26:00;11.80;99.90
55648;DHT22;45266;48.756;9.246;2023-05-16T05:27:02;11.80;99.90
55648;DHT22;45266;48.756;9.246;2023-05-16T05:28:04;11.80;99.90
55648;DHT22;45266;48.756;9.246;2023-05-16T05:29:06;11.80;99.90
55648;DHT22;45266;48.756;9.246;2023-05-16T05:30:08;11.90;99.90
55648;DHT22;45266;48.756;9.246;2023-05-16T05:31:10;11.80;99.90
55648;DHT22;45266;48.756;9.246;2023-05-16T05:32:13;11.80;99.90
55648;DHT22;45266;48.756;9.246;2023-05-16T05:33:16;11.90;99.90
55648;DHT22;45266;48.756;9.246;2023-05-16T05:34:21;11.90;99.90
55648;DHT22;45266;48.756;9.246;2023-05-16T05:35:22;11.90;99.90
55648;DHT22;45266;48.756;9.246;2023-05-16T05:36:24;11.90;99.90
55648;DHT22;45266;48.756;9.246;2023-05-16T05:37:26;11.90;99.90
55648;DHT22;45266;48.756;9.246;2023-05-16T05:38:28;11.90;99.90
55648;DHT22;45266;48.756;9.246;2023-05-16T05:39:30;11.90;99.90
55648;DHT22;45266;48.756;9.246;2023-05-16T05:40:31;11.90;99.90
55648;DHT22;45266;48.756;9.246;2023-05-16T05:41:33;11.90;99.90
55648;DHT22;45266;48.756;9.246;2023-05-16T05:42:35;11.90;99.90
55648;DHT22;45266;48.756;9.246;2023-05-16T05:43:37;11.90;99.90
55648;DHT22;45266;48.756;9.246;2023-05-16T05:44:39;12.00;99.90
55648;DHT22;45266;48.756;9.246;2023-05-16T05:45:41;11.80;99.90
55648;DHT22;45266;48.756;9.246;2023-05-16T05:46:43;12.00;99.90
55648;DHT22;45266;48.756;9.246;2023-05-16T05:47:45;12.00;99.90
55648;DHT22;45266;48.756;9.246;2023-05-16T05:48:47;11.90;99.90
55648;DHT22;45266;48.756;9.246;2023-05-16T05:49:49;11.80;99.90
55648;DHT22;45266;48.756;9.246;2023-05-16T05:50:51;12.00;99.90
55648;DHT22;45266;48.756;9.246;2023-05-16T05:51:53;12.00;99.90
55648;DHT22;45266;48.756;9.246;2023-05-16T05:52:55;12.00;99.90
55648;DHT22;45266;48.756;9.246;2023-05-16T05:53:57;12.00;99.90
55648;DHT22;45266;48.756;9.246;2023-05-16T05:54:59;12.00;99.90
55648;DHT22;45266;48.756;9.246;2023-05-16T05:56:01;11.90;99.90
55648;DHT22;45266;48.756;9.246;2023-05-16T05:57:03;12.00;99.90
55648;DHT22;45266;48.756;9.246;2023-05-16T05:58:04;12.00;99.90
55648;DHT22;45266;48.756;9.246;2023-05-16T05:59:07;12.00;99.90
55648;DHT22;45266;48.756;9.246;2023-05-16T06:00:10;11.90;99.90
55648;DHT22;45266;48.756;9.246;2023-05-16T06:01:12;12.00;99.90
55648;DHT22;45266;48.756;9.246;2023-05-16T06:02:14;12.00;99.90
55648;DHT22;45266;48.756;9.246;2023-05-16T06:03:16;12.00;99.90
55648;DHT22;45266;48.756;9.246;2023-05-16T06:04:18;11.90;99.90
55648;DHT22;45266;48.756;9.246;2023-05-16T06:05:20;12.00;99.90
55648;DHT22;45266;48.756;9.246;2023-05-16T06:06:22;12.00;99.90
55648;DHT22;45266;48.756;9.246;2023-05-16T06:07:24;12.00;99.90
55648;DHT22;45266;48.756;9.246;2023-05-16T06:08:26;12.00;99.90
55648;DHT22;45266;48.756;9.246;2023-05-16T06:09:28;12.00;99.90
55648;DHT22;45266;48.756;9.246;2023-05-16T06:10:29;12.00;99.90
55648;DHT22;45266;48.756;9.246;2023-05-16T06:11:31;12.10;99.90
55648;DHT22;45266;48.756;9.246;2023-05-16T06:12:33;12.10;99.90
55648;DHT22;45266;48.756;9.246;2023-05-16T06:13:35;12.10;99.90
55648;DHT22;45266;48.756;9.246;2023-05-16T06:14:38;12.10;99.90
55648;DHT22;45266;48.756;9.246;2023-05-16T06:15:39;12.20;99.90
55648;DHT22;45266;48.756;9.246;2023-05-16T06:16:41;12.20;99.90
55648;DHT22;45266;48.756;9.246;2023-05-16T06:17:44;12.20;99.90
55648;DHT22;45266;48.756;9.246;2023-05-16T06:18:45;12.20;99.90
55648;DHT22;45266;48.756;9.246;2023-05-16T06:19:49;12.30;99.90
55648;DHT22;45266;48.756;9.246;2023-05-16T06:20:53;12.30;99.90
55648;DHT22;45266;48.756;9.246;2023-05-16T06:21:54;12.30;99.90
55648;DHT22;45266;48.756;9.246;2023-05-16T06:22:57;12.30;99.90
55648;DHT22;45266;48.756;9.246;2023-05-16T06:23:59;12.40;99.90
55648;DHT22;45266;48.756;9.246;2023-05-16T06:25:01;12.40;99.90
55648;DHT22;45266;48.756;9.246;2023-05-16T06:26:03;12.40;99.90
55648;DHT22;45266;48.756;9.246;2023-05-16T06:27:05;12.50;99.90
55648;DHT22;45266;48.756;9.246;2023-05-16T06:28:07;12.50;99.90
55648;DHT22;45266;48.756;9.246;2023-05-16T06:29:09;12.60;99.90
55648;DHT22;45266;48.756;9.246;2023-05-16T06:30:11;12.60;99.90
55648;DHT22;45266;48.756;9.246;2023-05-16T06:31:13;12.60;99.90
55648;DHT22;45266;48.756;9.246;2023-05-16T06:32:15;12.60;99.90
55648;DHT22;45266;48.756;9.246;2023-05-16T06:33:20;12.70;99.90
55648;DHT22;45266;48.756;9.246;2023-05-16T06:34:22;12.70;99.90
55648;DHT22;45266;48.756;9.246;2023-05-16T06:35:28;12.70;99.90
55648;DHT22;45266;48.756;9.246;2023-05-16T06:36:30;12.80;99.90
55648;DHT22;45266;48.756;9.246;2023-05-16T06:37:32;12.80;99.90
55648;DHT22;45266;48.756;9.246;2023-05-16T06:38:34;12.80;99.90
55648;DHT22;45266;48.756;9.246;2023-05-16T06:39:36;12.80;99.90
55648;DHT22;45266;48.756;9.246;2023-05-16T06:40:38;12.90;99.90
55648;DHT22;45266;48.756;9.246;2023-05-16T06:41:39;12.90;99.90
55648;DHT22;45266;48.756;9.246;2023-05-16T06:42:41;12.90;99.90
55648;DHT22;45266;48.756;9.246;2023-05-16T06:43:43;12.90;99.90
55648;DHT22;45266;48.756;9.246;2023-05-16T06:44:46;12.90;99.90
55648;DHT22;45266;48.756;9.246;2023-05-16T06:45:47;12.80;99.90
55648;DHT22;45266;48.756;9.246;2023-05-16T06:46:49;12.80;99.90
55648;DHT22;45266;48.756;9.246;2023-05-16T06:47:51;12.80;99.90